sensor_id;sensor_type;location;lat;lon;timestamp;P1;durP1;ratioP1;P2;durP2;ratioP2
83554;SDS011;73511;50.996;7.030;2024-03-06T00:00:19;31.25;;;13.02;;
83554;SDS011;73511;50.996;7.030;2024-03-06T00:02:46;27.40;;;11.70;;
83554;SDS011;73511;50.996;7.030;2024-03-06T00:05:13;30.58;;;11.80;;
83554;SDS011;73511;50.996;7.030;2024-03-06T00:07:40;32.78;;;12.77;;
83554;SDS011;73511;50.996;7.030;2024-03-06T00:10:07;31.88;;;11.93;;
83554;SDS011;73511;50.996;7.030;2024-03-06T00:12:34;23.13;;;9.48;;
83554;SDS011;73511;50.996;7.030;2024-03-06T00:15:01;24.27;;;10.90;;
83554;SDS011;73511;50.996;7.030;2024-03-06T00:17:28;30.98;;;12.07;;
83554;SDS011;73511;50.996;7.030;2024-03-06T00:19:55;28.95;;;12.23;;
83554;SDS011;73511;50.996;7.030;2024-03-06T00:22:22;28.35;;;12.15;;
83554;SDS011;73511;50.996;7.030;2024-03-06T00:24:49;30.90;;;11.85;;
83554;SDS011;73511;50.996;7.030;2024-03-06T00:27:16;29.38;;;10.90;;
83554;SDS011;73511;50.996;7.030;2024-03-06T00:29:43;25.85;;;11.88;;
83554;SDS011;73511;50.996;7.030;2024-03-06T00:32:10;29.35;;;12.15;;
83554;SDS011;73511;50.996;7.030;2024-03-06T00:34:36;30.92;;;10.80;;
83554;SDS011;73511;50.996;7.030;2024-03-06T00:37:03;34.33;;;12.23;;
83554;SDS011;73511;50.996;7.030;2024-03-06T00:39:30;30.58;;;11.93;;
83554;SDS011;73511;50.996;7.030;2024-03-06T00:41:57;19.95;;;10.65;;
83554;SDS011;73511;50.996;7.030;2024-03-06T00:44:23;26.55;;;10.57;;
83554;SDS011;73511;50.996;7.030;2024-03-06T00:46:50;30.65;;;10.57;;
83554;SDS011;73511;50.996;7.030;2024-03-06T00:49:20;33.15;;;11.60;;
83554;SDS011;73511;50.996;7.030;2024-03-06T00:51:47;27.08;;;11.55;;
83554;SDS011;73511;50.996;7.030;2024-03-06T00:54:15;37.58;;;12.63;;
83554;SDS011;73511;50.996;7.030;2024-03-06T00:56:43;28.58;;;11.38;;
83554;SDS011;73511;50.996;7.030;2024-03-06T00:59:10;30.63;;;11.85;;
83554;SDS011;73511;50.996;7.030;2024-03-06T01:01:37;29.23;;;11.57;;
83554;SDS011;73511;50.996;7.030;2024-03-06T01:04:04;36.83;;;12.70;;
83554;SDS011;73511;50.996;7.030;2024-03-06T01:06:31;32.80;;;11.65;;
83554;SDS011;73511;50.996;7.030;2024-03-06T01:09:01;23.45;;;10.40;;
83554;SDS011;73511;50.996;7.030;2024-03-06T01:11:27;26.80;;;10.07;;
83554;SDS011;73511;50.996;7.030;2024-03-06T01:13:54;27.85;;;11.32;;
83554;SDS011;73511;50.996;7.030;2024-03-06T01:16:21;25.25;;;10.43;;
83554;SDS011;73511;50.996;7.030;2024-03-06T01:18:48;29.52;;;10.70;;
83554;SDS011;73511;50.996;7.030;2024-03-06T01:21:17;25.35;;;10.80;;
83554;SDS011;73511;50.996;7.030;2024-03-06T01:23:43;20.77;;;9.25;;
83554;SDS011;73511;50.996;7.030;2024-03-06T01:26:10;23.38;;;9.50;;
83554;SDS011;73511;50.996;7.030;2024-03-06T01:28:38;30.25;;;11.18;;
83554;SDS011;73511;50.996;7.030;2024-03-06T01:31:04;24.85;;;10.38;;
83554;SDS011;73511;50.996;7.030;2024-03-06T01:33:31;35.47;;;12.63;;
83554;SDS011;73511;50.996;7.030;2024-03-06T01:36:00;27.40;;;10.57;;
83554;SDS011;73511;50.996;7.030;2024-03-06T01:38:29;31.98;;;12.80;;
83554;SDS011;73511;50.996;7.030;2024-03-06T01:40:56;29.02;;;12.63;;
83554;SDS011;73511;50.996;7.030;2024-03-06T01:43:25;29.15;;;11.30;;
83554;SDS011;73511;50.996;7.030;2024-03-06T01:45:52;33.38;;;12.65;;
83554;SDS011;73511;50.996;7.030;2024-03-06T01:48:23;31.30;;;11.75;;
83554;SDS011;73511;50.996;7.030;2024-03-06T01:50:54;31.17;;;12.18;;
83554;SDS011;73511;50.996;7.030;2024-03-06T01:53:22;30.17;;;11.45;;
83554;SDS011;73511;50.996;7.030;2024-03-06T01:55:50;23.50;;;11.02;;
83554;SDS011;73511;50.996;7.030;2024-03-06T01:58:17;29.38;;;10.80;;
83554;SDS011;73511;50.996;7.030;2024-03-06T02:00:44;25.77;;;11.80;;
83554;SDS011;73511;50.996;7.030;2024-03-06T02:03:11;31.20;;;10.35;;
83554;SDS011;73511;50.996;7.030;2024-03-06T02:05:40;28.60;;;11.80;;
83554;SDS011;73511;50.996;7.030;2024-03-06T02:08:09;25.83;;;10.38;;
83554;SDS011;73511;50.996;7.030;2024-03-06T02:10:36;30.67;;;11.68;;
83554;SDS011;73511;50.996;7.030;2024-03-06T02:13:03;28.27;;;10.00;;
83554;SDS011;73511;50.996;7.030;2024-03-06T02:15:29;22.13;;;9.43;;
83554;SDS011;73511;50.996;7.030;2024-03-06T02:17:56;23.95;;;10.40;;
83554;SDS011;73511;50.996;7.030;2024-03-06T02:20:24;32.80;;;10.65;;
83554;SDS011;73511;50.996;7.030;2024-03-06T02:22:51;37.17;;;12.35;;
83554;SDS011;73511;50.996;7.030;2024-03-06T02:25:18;32.35;;;12.23;;
83554;SDS011;73511;50.996;7.030;2024-03-06T02:27:45;28.80;;;11.60;;
83554;SDS011;73511;50.996;7.030;2024-03-06T02:30:14;28.92;;;11.35;;
83554;SDS011;73511;50.996;7.030;2024-03-06T02:32:41;29.48;;;11.27;;
83554;SDS011;73511;50.996;7.030;2024-03-06T02:35:10;29.05;;;10.65;;
83554;SDS011;73511;50.996;7.030;2024-03-06T02:37:37;24.60;;;11.93;;
83554;SDS011;73511;50.996;7.030;2024-03-06T02:40:06;29.48;;;11.43;;
83554;SDS011;73511;50.996;7.030;2024-03-06T02:42:36;26.73;;;11.32;;
83554;SDS011;73511;50.996;7.030;2024-03-06T02:45:05;29.73;;;11.90;;
83554;SDS011;73511;50.996;7.030;2024-03-06T02:47:33;31.38;;;12.13;;
83554;SDS011;73511;50.996;7.030;2024-03-06T02:50:02;26.85;;;10.10;;
83554;SDS011;73511;50.996;7.030;2024-03-06T02:52:31;29.73;;;10.65;;
83554;SDS011;73511;50.996;7.030;2024-03-06T02:54:58;31.83;;;11.10;;
83554;SDS011;73511;50.996;7.030;2024-03-06T02:57:27;25.67;;;10.30;;
83554;SDS011;73511;50.996;7.030;2024-03-06T02:59:56;30.13;;;10.88;;
83554;SDS011;73511;50.996;7.030;2024-03-06T03:02:23;28.52;;;11.30;;
83554;SDS011;73511;50.996;7.030;2024-03-06T03:04:52;32.05;;;11.10;;
83554;SDS011;73511;50.996;7.030;2024-03-06T03:07:21;25.13;;;10.43;;
83554;SDS011;73511;50.996;7.030;2024-03-06T03:09:49;27.85;;;10.68;;
83554;SDS011;73511;50.996;7.030;2024-03-06T03:12:16;27.88;;;11.45;;
83554;SDS011;73511;50.996;7.030;2024-03-06T03:14:42;27.73;;;9.88;;
83554;SDS011;73511;50.996;7.030;2024-03-06T03:17:09;25.02;;;9.80;;
83554;SDS011;73511;50.996;7.030;2024-03-06T03:19:36;29.50;;;10.70;;
83554;SDS011;73511;50.996;7.030;2024-03-06T03:22:06;29.63;;;10.55;;
83554;SDS011;73511;50.996;7.030;2024-03-06T03:24:36;24.88;;;10.13;;
83554;SDS011;73511;50.996;7.030;2024-03-06T03:27:06;24.42;;;10.38;;
83554;SDS011;73511;50.996;7.030;2024-03-06T03:29:32;27.23;;;11.18;;
83554;SDS011;73511;50.996;7.030;2024-03-06T03:31:59;26.00;;;10.90;;
83554;SDS011;73511;50.996;7.030;2024-03-06T03:34:28;24.20;;;9.45;;
83554;SDS011;73511;50.996;7.030;2024-03-06T03:36:55;26.90;;;9.98;;
83554;SDS011;73511;50.996;7.030;2024-03-06T03:39:21;28.98;;;10.63;;
83554;SDS011;73511;50.996;7.030;2024-03-06T03:41:52;33.63;;;11.65;;
83554;SDS011;73511;50.996;7.030;2024-03-06T03:44:19;22.23;;;10.45;;
83554;SDS011;73511;50.996;7.030;2024-03-06T03:46:46;33.38;;;11.82;;
83554;SDS011;73511;50.996;7.030;2024-03-06T03:49:12;32.22;;;10.80;;
83554;SDS011;73511;50.996;7.030;2024-03-06T03:51:42;28.13;;;10.52;;
83554;SDS011;73511;50.996;7.030;2024-03-06T03:54:14;33.47;;;12.30;;
83554;SDS011;73511;50.996;7.030;2024-03-06T03:56:40;28.17;;;10.23;;
83554;SDS011;73511;50.996;7.030;2024-03-06T03:59:07;30.88;;;10.98;;
83554;SDS011;73511;50.996;7.030;2024-03-06T04:01:34;29.92;;;11.63;;
83554;SDS011;73511;50.996;7.030;2024-03-06T04:04:00;29.85;;;10.77;;
83554;SDS011;73511;50.996;7.030;2024-03-06T04:06:27;27.42;;;10.45;;
83554;SDS011;73511;50.996;7.030;2024-03-06T04:08:56;27.95;;;11.05;;
83554;SDS011;73511;50.996;7.030;2024-03-06T04:11:25;30.30;;;11.07;;
83554;SDS011;73511;50.996;7.030;2024-03-06T04:13:52;26.48;;;10.77;;
83554;SDS011;73511;50.996;7.030;2024-03-06T04:16:21;28.25;;;11.00;;
83554;SDS011;73511;50.996;7.030;2024-03-06T04:18:48;27.45;;;9.82;;
83554;SDS011;73511;50.996;7.030;2024-03-06T04:21:19;27.45;;;10.25;;
83554;SDS011;73511;50.996;7.030;2024-03-06T04:23:48;29.60;;;11.05;;
83554;SDS011;73511;50.996;7.030;2024-03-06T04:26:15;26.33;;;11.18;;
83554;SDS011;73511;50.996;7.030;2024-03-06T04:28:43;31.25;;;10.38;;
83554;SDS011;73511;50.996;7.030;2024-03-06T04:31:10;23.92;;;10.27;;
83554;SDS011;73511;50.996;7.030;2024-03-06T04:33:37;22.60;;;10.05;;
83554;SDS011;73511;50.996;7.030;2024-03-06T04:36:03;25.40;;;10.45;;
83554;SDS011;73511;50.996;7.030;2024-03-06T04:38:33;23.17;;;9.80;;
83554;SDS011;73511;50.996;7.030;2024-03-06T04:40:59;31.17;;;10.82;;
83554;SDS011;73511;50.996;7.030;2024-03-06T04:43:26;27.60;;;9.95;;
83554;SDS011;73511;50.996;7.030;2024-03-06T04:45:53;23.75;;;10.70;;
83554;SDS011;73511;50.996;7.030;2024-03-06T04:48:21;30.25;;;10.68;;
83554;SDS011;73511;50.996;7.030;2024-03-06T04:50:48;25.85;;;10.20;;
83554;SDS011;73511;50.996;7.030;2024-03-06T04:53:15;27.10;;;9.75;;
83554;SDS011;73511;50.996;7.030;2024-03-06T04:55:42;27.23;;;9.98;;
83554;SDS011;73511;50.996;7.030;2024-03-06T04:58:08;32.40;;;11.45;;
83554;SDS011;73511;50.996;7.030;2024-03-06T05:00:37;26.52;;;10.00;;
83554;SDS011;73511;50.996;7.030;2024-03-06T05:03:04;29.65;;;11.05;;
83554;SDS011;73511;50.996;7.030;2024-03-06T05:05:48;27.92;;;9.65;;
83554;SDS011;73511;50.996;7.030;2024-03-06T05:08:32;25.75;;;11.38;;
83554;SDS011;73511;50.996;7.030;2024-03-06T05:11:17;25.48;;;10.30;;
83554;SDS011;73511;50.996;7.030;2024-03-06T05:14:01;20.00;;;8.07;;
83554;SDS011;73511;50.996;7.030;2024-03-06T05:16:46;23.98;;;9.63;;
83554;SDS011;73511;50.996;7.030;2024-03-06T05:19:30;29.27;;;11.07;;
83554;SDS011;73511;50.996;7.030;2024-03-06T05:22:18;26.98;;;9.63;;
83554;SDS011;73511;50.996;7.030;2024-03-06T05:25:02;26.08;;;10.82;;
83554;SDS011;73511;50.996;7.030;2024-03-06T05:27:47;27.45;;;9.80;;
83554;SDS011;73511;50.996;7.030;2024-03-06T05:30:30;18.90;;;8.45;;
83554;SDS011;73511;50.996;7.030;2024-03-06T05:33:14;31.50;;;10.32;;
83554;SDS011;73511;50.996;7.030;2024-03-06T05:35:58;21.73;;;8.95;;
83554;SDS011;73511;50.996;7.030;2024-03-06T05:38:43;25.27;;;9.75;;
83554;SDS011;73511;50.996;7.030;2024-03-06T05:41:28;23.27;;;9.63;;
83554;SDS011;73511;50.996;7.030;2024-03-06T05:44:12;28.60;;;9.30;;
83554;SDS011;73511;50.996;7.030;2024-03-06T05:46:56;23.67;;;10.43;;
83554;SDS011;73511;50.996;7.030;2024-03-06T05:49:41;25.05;;;9.80;;
83554;SDS011;73511;50.996;7.030;2024-03-06T05:52:25;21.95;;;8.88;;
83554;SDS011;73511;50.996;7.030;2024-03-06T05:55:09;24.90;;;10.30;;
83554;SDS011;73511;50.996;7.030;2024-03-06T05:57:53;21.33;;;8.90;;
83554;SDS011;73511;50.996;7.030;2024-03-06T06:00:37;22.73;;;7.88;;
83554;SDS011;73511;50.996;7.030;2024-03-06T06:03:07;23.05;;;8.55;;
83554;SDS011;73511;50.996;7.030;2024-03-06T06:05:34;26.05;;;9.52;;
83554;SDS011;73511;50.996;7.030;2024-03-06T06:08:03;22.42;;;8.90;;
83554;SDS011;73511;50.996;7.030;2024-03-06T06:10:30;19.75;;;9.23;;
83554;SDS011;73511;50.996;7.030;2024-03-06T06:12:56;27.60;;;10.45;;
83554;SDS011;73511;50.996;7.030;2024-03-06T06:15:24;23.65;;;9.15;;
83554;SDS011;73511;50.996;7.030;2024-03-06T06:17:51;23.08;;;9.93;;
83554;SDS011;73511;50.996;7.030;2024-03-06T06:20:20;23.35;;;9.25;;
83554;SDS011;73511;50.996;7.030;2024-03-06T06:22:46;19.92;;;8.80;;
83554;SDS011;73511;50.996;7.030;2024-03-06T06:25:13;21.90;;;9.13;;
83554;SDS011;73511;50.996;7.030;2024-03-06T06:27:41;19.20;;;7.43;;
83554;SDS011;73511;50.996;7.030;2024-03-06T06:30:08;21.88;;;7.78;;
83554;SDS011;73511;50.996;7.030;2024-03-06T06:32:39;18.70;;;7.80;;
83554;SDS011;73511;50.996;7.030;2024-03-06T06:35:07;23.77;;;8.45;;
83554;SDS011;73511;50.996;7.030;2024-03-06T06:37:34;22.35;;;7.50;;
83554;SDS011;73511;50.996;7.030;2024-03-06T06:40:00;13.80;;;6.28;;
83554;SDS011;73511;50.996;7.030;2024-03-06T06:42:33;18.10;;;7.35;;
83554;SDS011;73511;50.996;7.030;2024-03-06T06:45:00;16.17;;;7.57;;
83554;SDS011;73511;50.996;7.030;2024-03-06T06:47:29;22.67;;;8.63;;
83554;SDS011;73511;50.996;7.030;2024-03-06T06:49:56;27.02;;;8.98;;
83554;SDS011;73511;50.996;7.030;2024-03-06T06:52:25;20.08;;;8.00;;
83554;SDS011;73511;50.996;7.030;2024-03-06T06:54:54;15.98;;;7.20;;
83554;SDS011;73511;50.996;7.030;2024-03-06T06:57:22;22.02;;;6.78;;
83554;SDS011;73511;50.996;7.030;2024-03-06T06:59:48;22.25;;;8.13;;
83554;SDS011;73511;50.996;7.030;2024-03-06T07:02:20;14.88;;;6.60;;
83554;SDS011;73511;50.996;7.030;2024-03-06T07:04:46;17.00;;;8.38;;
83554;SDS011;73511;50.996;7.030;2024-03-06T07:07:15;21.90;;;8.52;;
83554;SDS011;73511;50.996;7.030;2024-03-06T07:09:43;22.80;;;8.70;;
83554;SDS011;73511;50.996;7.030;2024-03-06T07:12:12;19.85;;;8.77;;
83554;SDS011;73511;50.996;7.030;2024-03-06T07:14:38;18.15;;;7.60;;
83554;SDS011;73511;50.996;7.030;2024-03-06T07:17:05;17.15;;;6.82;;
83554;SDS011;73511;50.996;7.030;2024-03-06T07:19:32;19.48;;;7.60;;
83554;SDS011;73511;50.996;7.030;2024-03-06T07:21:58;16.50;;;7.15;;
83554;SDS011;73511;50.996;7.030;2024-03-06T07:24:25;19.30;;;7.57;;
83554;SDS011;73511;50.996;7.030;2024-03-06T07:26:51;13.80;;;7.20;;
83554;SDS011;73511;50.996;7.030;2024-03-06T07:29:18;17.15;;;7.25;;
83554;SDS011;73511;50.996;7.030;2024-03-06T07:31:44;21.25;;;7.28;;
83554;SDS011;73511;50.996;7.030;2024-03-06T07:34:11;15.80;;;7.25;;
83554;SDS011;73511;50.996;7.030;2024-03-06T07:36:38;16.75;;;7.90;;
83554;SDS011;73511;50.996;7.030;2024-03-06T07:39:05;16.85;;;6.50;;
83554;SDS011;73511;50.996;7.030;2024-03-06T07:41:31;14.52;;;5.70;;
83554;SDS011;73511;50.996;7.030;2024-03-06T07:44:01;11.60;;;5.20;;
83554;SDS011;73511;50.996;7.030;2024-03-06T07:46:29;16.27;;;6.85;;
83554;SDS011;73511;50.996;7.030;2024-03-06T07:48:55;16.08;;;7.65;;
83554;SDS011;73511;50.996;7.030;2024-03-06T07:51:22;14.25;;;6.70;;
83554;SDS011;73511;50.996;7.030;2024-03-06T07:53:49;14.32;;;5.88;;
83554;SDS011;73511;50.996;7.030;2024-03-06T07:56:17;16.58;;;7.05;;
83554;SDS011;73511;50.996;7.030;2024-03-06T07:58:43;17.23;;;7.35;;
83554;SDS011;73511;50.996;7.030;2024-03-06T08:01:10;11.88;;;4.85;;
83554;SDS011;73511;50.996;7.030;2024-03-06T08:03:38;21.10;;;6.72;;
83554;SDS011;73511;50.996;7.030;2024-03-06T08:06:09;16.90;;;7.15;;
83554;SDS011;73511;50.996;7.030;2024-03-06T08:08:36;17.70;;;7.10;;
83554;SDS011;73511;50.996;7.030;2024-03-06T08:11:03;10.75;;;5.50;;
83554;SDS011;73511;50.996;7.030;2024-03-06T08:13:30;15.88;;;4.85;;
83554;SDS011;73511;50.996;7.030;2024-03-06T08:15:56;11.77;;;5.93;;
83554;SDS011;73511;50.996;7.030;2024-03-06T08:18:25;10.48;;;4.40;;
83554;SDS011;73511;50.996;7.030;2024-03-06T08:20:54;12.85;;;5.72;;
83554;SDS011;73511;50.996;7.030;2024-03-06T08:23:21;17.50;;;7.97;;
83554;SDS011;73511;50.996;7.030;2024-03-06T08:25:48;21.05;;;7.85;;
83554;SDS011;73511;50.996;7.030;2024-03-06T08:28:17;17.85;;;5.72;;
83554;SDS011;73511;50.996;7.030;2024-03-06T08:30:43;7.70;;;4.78;;
83554;SDS011;73511;50.996;7.030;2024-03-06T08:33:10;13.23;;;5.40;;
83554;SDS011;73511;50.996;7.030;2024-03-06T08:35:40;13.00;;;6.00;;
83554;SDS011;73511;50.996;7.030;2024-03-06T08:38:09;7.28;;;3.80;;
83554;SDS011;73511;50.996;7.030;2024-03-06T08:40:35;10.10;;;4.47;;
83554;SDS011;73511;50.996;7.030;2024-03-06T08:43:04;12.45;;;5.22;;
83554;SDS011;73511;50.996;7.030;2024-03-06T08:45:30;9.15;;;4.53;;
83554;SDS011;73511;50.996;7.030;2024-03-06T08:47:59;19.27;;;7.32;;
83554;SDS011;73511;50.996;7.030;2024-03-06T08:50:26;25.75;;;8.57;;
83554;SDS011;73511;50.996;7.030;2024-03-06T08:52:52;18.73;;;6.95;;
83554;SDS011;73511;50.996;7.030;2024-03-06T08:55:19;33.15;;;11.60;;
83554;SDS011;73511;50.996;7.030;2024-03-06T08:57:46;33.33;;;9.60;;
83554;SDS011;73511;50.996;7.030;2024-03-06T09:00:12;28.08;;;9.68;;
83554;SDS011;73511;50.996;7.030;2024-03-06T09:02:43;25.77;;;9.95;;
83554;SDS011;73511;50.996;7.030;2024-03-06T09:05:10;29.52;;;9.95;;
83554;SDS011;73511;50.996;7.030;2024-03-06T09:07:40;26.98;;;8.70;;
83554;SDS011;73511;50.996;7.030;2024-03-06T09:10:08;22.58;;;8.45;;
83554;SDS011;73511;50.996;7.030;2024-03-06T09:12:36;21.73;;;8.05;;
83554;SDS011;73511;50.996;7.030;2024-03-06T09:15:07;30.98;;;9.73;;
83554;SDS011;73511;50.996;7.030;2024-03-06T09:17:35;31.95;;;9.50;;
83554;SDS011;73511;50.996;7.030;2024-03-06T09:20:02;38.80;;;12.13;;
83554;SDS011;73511;50.996;7.030;2024-03-06T09:22:40;29.35;;;9.60;;
83554;SDS011;73511;50.996;7.030;2024-03-06T09:25:07;17.17;;;6.43;;
83554;SDS011;73511;50.996;7.030;2024-03-06T09:27:34;28.85;;;9.35;;
83554;SDS011;73511;50.996;7.030;2024-03-06T09:30:01;26.45;;;7.57;;
83554;SDS011;73511;50.996;7.030;2024-03-06T09:32:29;28.38;;;9.40;;
83554;SDS011;73511;50.996;7.030;2024-03-06T09:34:57;14.48;;;6.43;;
83554;SDS011;73511;50.996;7.030;2024-03-06T09:37:24;22.90;;;8.15;;
83554;SDS011;73511;50.996;7.030;2024-03-06T10:50:30;43.80;;;15.45;;
83554;SDS011;73511;50.996;7.030;2024-03-06T10:52:59;47.05;;;17.05;;
83554;SDS011;73511;50.996;7.030;2024-03-06T10:55:26;47.58;;;15.07;;
83554;SDS011;73511;50.996;7.030;2024-03-06T10:57:54;36.75;;;14.20;;
83554;SDS011;73511;50.996;7.030;2024-03-06T11:00:23;33.28;;;13.02;;
83554;SDS011;73511;50.996;7.030;2024-03-06T11:02:55;35.85;;;13.43;;
83554;SDS011;73511;50.996;7.030;2024-03-06T11:05:24;36.60;;;14.07;;
83554;SDS011;73511;50.996;7.030;2024-03-06T11:07:53;39.08;;;10.48;;
83554;SDS011;73511;50.996;7.030;2024-03-06T11:10:32;31.83;;;11.52;;
83554;SDS011;73511;50.996;7.030;2024-03-06T11:13:03;28.92;;;10.85;;
83554;SDS011;73511;50.996;7.030;2024-03-06T11:19:19;36.38;;;13.68;;
83554;SDS011;73511;50.996;7.030;2024-03-06T11:21:56;35.88;;;12.90;;
83554;SDS011;73511;50.996;7.030;2024-03-06T11:24:33;29.73;;;10.82;;
83554;SDS011;73511;50.996;7.030;2024-03-06T11:27:00;34.00;;;12.13;;
83554;SDS011;73511;50.996;7.030;2024-03-06T11:29:28;30.70;;;12.77;;
83554;SDS011;73511;50.996;7.030;2024-03-06T11:32:00;34.78;;;13.30;;
83554;SDS011;73511;50.996;7.030;2024-03-06T11:34:29;42.53;;;13.43;;
83554;SDS011;73511;50.996;7.030;2024-03-06T11:37:03;33.55;;;13.15;;
83554;SDS011;73511;50.996;7.030;2024-03-06T11:39:34;31.13;;;11.85;;
83554;SDS011;73511;50.996;7.030;2024-03-06T11:42:03;40.13;;;13.90;;
83554;SDS011;73511;50.996;7.030;2024-03-06T11:44:46;41.38;;;13.93;;
83554;SDS011;73511;50.996;7.030;2024-03-06T11:50:27;33.95;;;11.77;;
83554;SDS011;73511;50.996;7.030;2024-03-06T11:52:58;32.28;;;12.95;;
83554;SDS011;73511;50.996;7.030;2024-03-06T11:55:25;34.05;;;11.52;;
83554;SDS011;73511;50.996;7.030;2024-03-06T11:57:52;36.47;;;13.90;;
83554;SDS011;73511;50.996;7.030;2024-03-06T12:00:23;34.70;;;13.52;;
83554;SDS011;73511;50.996;7.030;2024-03-06T12:02:50;22.90;;;10.85;;
83554;SDS011;73511;50.996;7.030;2024-03-06T12:05:20;37.20;;;14.02;;
83554;SDS011;73511;50.996;7.030;2024-03-06T12:07:50;22.33;;;8.88;;
83554;SDS011;73511;50.996;7.030;2024-03-06T12:10:17;34.17;;;13.07;;
83554;SDS011;73511;50.996;7.030;2024-03-06T12:12:46;33.10;;;13.02;;
83554;SDS011;73511;50.996;7.030;2024-03-06T12:15:18;37.85;;;14.40;;
83554;SDS011;73511;50.996;7.030;2024-03-06T12:17:45;36.10;;;12.55;;
83554;SDS011;73511;50.996;7.030;2024-03-06T12:20:14;22.70;;;9.43;;
83554;SDS011;73511;50.996;7.030;2024-03-06T12:25:23;29.75;;;10.60;;
83554;SDS011;73511;50.996;7.030;2024-03-06T12:28:05;36.88;;;12.50;;
83554;SDS011;73511;50.996;7.030;2024-03-06T12:30:42;34.85;;;11.95;;
83554;SDS011;73511;50.996;7.030;2024-03-06T12:33:10;25.73;;;9.65;;
83554;SDS011;73511;50.996;7.030;2024-03-06T12:35:41;30.50;;;11.55;;
83554;SDS011;73511;50.996;7.030;2024-03-06T12:38:13;32.10;;;12.02;;
83554;SDS011;73511;50.996;7.030;2024-03-06T12:40:45;32.45;;;12.00;;
83554;SDS011;73511;50.996;7.030;2024-03-06T12:43:11;33.08;;;10.77;;
83554;SDS011;73511;50.996;7.030;2024-03-06T12:45:38;30.15;;;11.35;;
83554;SDS011;73511;50.996;7.030;2024-03-06T12:48:05;33.05;;;11.38;;
83554;SDS011;73511;50.996;7.030;2024-03-06T12:50:38;31.75;;;10.57;;
83554;SDS011;73511;50.996;7.030;2024-03-06T12:53:05;32.35;;;11.68;;
83554;SDS011;73511;50.996;7.030;2024-03-06T12:55:32;21.70;;;6.43;;
83554;SDS011;73511;50.996;7.030;2024-03-06T12:57:58;20.55;;;6.20;;
83554;SDS011;73511;50.996;7.030;2024-03-06T13:00:25;13.80;;;5.40;;
83554;SDS011;73511;50.996;7.030;2024-03-06T13:02:51;18.35;;;6.93;;
83554;SDS011;73511;50.996;7.030;2024-03-06T13:16:21;12.35;;;5.47;;
83554;SDS011;73511;50.996;7.030;2024-03-06T13:18:48;17.38;;;6.15;;
83554;SDS011;73511;50.996;7.030;2024-03-06T13:21:16;20.75;;;7.20;;
83554;SDS011;73511;50.996;7.030;2024-03-06T13:23:44;17.65;;;6.32;;
83554;SDS011;73511;50.996;7.030;2024-03-06T13:26:11;19.52;;;6.57;;
83554;SDS011;73511;50.996;7.030;2024-03-06T13:31:05;12.63;;;4.82;;
83554;SDS011;73511;50.996;7.030;2024-03-06T13:33:33;13.65;;;4.57;;
83554;SDS011;73511;50.996;7.030;2024-03-06T13:36:00;12.45;;;5.50;;
83554;SDS011;73511;50.996;7.030;2024-03-06T13:38:30;13.23;;;4.82;;
83554;SDS011;73511;50.996;7.030;2024-03-06T13:40:59;14.60;;;5.22;;
83554;SDS011;73511;50.996;7.030;2024-03-06T13:43:28;9.32;;;4.45;;
83554;SDS011;73511;50.996;7.030;2024-03-06T13:45:55;15.25;;;5.60;;
83554;SDS011;73511;50.996;7.030;2024-03-06T13:48:24;11.82;;;4.28;;
83554;SDS011;73511;50.996;7.030;2024-03-06T13:50:51;13.90;;;5.30;;
83554;SDS011;73511;50.996;7.030;2024-03-06T13:53:17;10.60;;;4.32;;
83554;SDS011;73511;50.996;7.030;2024-03-06T13:55:44;14.07;;;3.78;;
83554;SDS011;73511;50.996;7.030;2024-03-06T13:58:10;12.43;;;4.35;;
83554;SDS011;73511;50.996;7.030;2024-03-06T14:00:37;14.90;;;6.07;;
83554;SDS011;73511;50.996;7.030;2024-03-06T14:03:04;9.57;;;3.97;;
83554;SDS011;73511;50.996;7.030;2024-03-06T14:05:33;10.15;;;3.80;;
83554;SDS011;73511;50.996;7.030;2024-03-06T14:07:59;10.40;;;4.15;;
83554;SDS011;73511;50.996;7.030;2024-03-06T14:10:26;8.65;;;3.75;;
83554;SDS011;73511;50.996;7.030;2024-03-06T14:15:24;10.13;;;4.10;;
83554;SDS011;73511;50.996;7.030;2024-03-06T14:17:52;13.10;;;4.50;;
83554;SDS011;73511;50.996;7.030;2024-03-06T14:20:22;8.38;;;4.00;;
83554;SDS011;73511;50.996;7.030;2024-03-06T14:22:50;8.60;;;3.80;;
83554;SDS011;73511;50.996;7.030;2024-03-06T14:25:19;10.43;;;4.30;;
83554;SDS011;73511;50.996;7.030;2024-03-06T14:27:46;12.00;;;4.90;;
83554;SDS011;73511;50.996;7.030;2024-03-06T14:30:13;12.05;;;4.13;;
83554;SDS011;73511;50.996;7.030;2024-03-06T14:32:41;12.63;;;4.53;;
83554;SDS011;73511;50.996;7.030;2024-03-06T14:35:08;9.52;;;4.30;;
83554;SDS011;73511;50.996;7.030;2024-03-06T14:37:35;9.55;;;4.38;;
83554;SDS011;73511;50.996;7.030;2024-03-06T14:40:01;10.77;;;4.80;;
83554;SDS011;73511;50.996;7.030;2024-03-06T14:42:34;9.43;;;4.10;;
83554;SDS011;73511;50.996;7.030;2024-03-06T14:45:01;9.23;;;3.60;;
83554;SDS011;73511;50.996;7.030;2024-03-06T14:47:34;9.60;;;3.88;;
83554;SDS011;73511;50.996;7.030;2024-03-06T14:50:02;7.32;;;3.47;;
83554;SDS011;73511;50.996;7.030;2024-03-06T14:52:29;12.68;;;4.30;;
83554;SDS011;73511;50.996;7.030;2024-03-06T14:54:55;8.85;;;3.80;;
83554;SDS011;73511;50.996;7.030;2024-03-06T14:57:22;5.80;;;3.20;;
83554;SDS011;73511;50.996;7.030;2024-03-06T15:02:17;8.68;;;3.75;;
83554;SDS011;73511;50.996;7.030;2024-03-06T15:04:46;7.07;;;3.13;;
83554;SDS011;73511;50.996;7.030;2024-03-06T15:07:14;6.80;;;3.42;;
83554;SDS011;73511;50.996;7.030;2024-03-06T15:09:43;6.93;;;3.03;;
83554;SDS011;73511;50.996;7.030;2024-03-06T15:12:12;9.38;;;3.85;;
83554;SDS011;73511;50.996;7.030;2024-03-06T15:14:39;14.68;;;4.03;;
83554;SDS011;73511;50.996;7.030;2024-03-06T15:17:12;14.68;;;4.65;;
83554;SDS011;73511;50.996;7.030;2024-03-06T15:19:39;7.97;;;3.25;;
83554;SDS011;73511;50.996;7.030;2024-03-06T15:22:06;6.70;;;3.28;;
83554;SDS011;73511;50.996;7.030;2024-03-06T15:24:34;10.55;;;4.07;;
83554;SDS011;73511;50.996;7.030;2024-03-06T15:27:00;9.88;;;3.65;;
83554;SDS011;73511;50.996;7.030;2024-03-06T15:29:27;10.60;;;4.63;;
83554;SDS011;73511;50.996;7.030;2024-03-06T15:31:56;14.98;;;5.97;;
83554;SDS011;73511;50.996;7.030;2024-03-06T15:34:25;14.55;;;5.00;;
83554;SDS011;73511;50.996;7.030;2024-03-06T15:36:52;15.45;;;6.30;;
83554;SDS011;73511;50.996;7.030;2024-03-06T15:39:21;12.15;;;5.50;;
83554;SDS011;73511;50.996;7.030;2024-03-06T15:41:48;12.13;;;5.53;;
83554;SDS011;73511;50.996;7.030;2024-03-06T15:44:15;17.67;;;7.45;;
83554;SDS011;73511;50.996;7.030;2024-03-06T15:46:41;18.40;;;7.80;;
83554;SDS011;73511;50.996;7.030;2024-03-06T15:49:21;24.42;;;9.20;;
83554;SDS011;73511;50.996;7.030;2024-03-06T15:51:52;16.52;;;6.32;;
83554;SDS011;73511;50.996;7.030;2024-03-06T15:54:19;21.02;;;7.13;;
83554;SDS011;73511;50.996;7.030;2024-03-06T15:56:49;19.45;;;7.38;;
83554;SDS011;73511;50.996;7.030;2024-03-06T15:59:16;25.67;;;8.52;;
83554;SDS011;73511;50.996;7.030;2024-03-06T16:01:43;18.25;;;7.18;;
83554;SDS011;73511;50.996;7.030;2024-03-06T16:04:10;21.10;;;7.50;;
83554;SDS011;73511;50.996;7.030;2024-03-06T16:06:39;22.55;;;8.75;;
83554;SDS011;73511;50.996;7.030;2024-03-06T16:14:06;21.40;;;8.18;;
83554;SDS011;73511;50.996;7.030;2024-03-06T16:16:33;23.77;;;8.80;;
83554;SDS011;73511;50.996;7.030;2024-03-06T16:19:01;25.67;;;9.38;;
83554;SDS011;73511;50.996;7.030;2024-03-06T16:21:28;26.38;;;9.52;;